sensor_id;sensor_type;location;lat;lon;timestamp;P1;durP1;ratioP1;P2;durP2;ratioP2
36225;SDS011;22268;52.010;4.716;2023-05-24T00:00:06;14.55;;;4.60;;
36225;SDS011;22268;52.010;4.716;2023-05-24T00:02:36;19.33;;;5.72;;
36225;SDS011;22268;52.010;4.716;2023-05-24T00:05:01;22.25;;;5.00;;
36225;SDS011;22268;52.010;4.716;2023-05-24T00:07:27;21.80;;;5.85;;
36225;SDS011;22268;52.010;4.716;2023-05-24T00:12:17;22.70;;;5.22;;
36225;SDS011;22268;52.010;4.716;2023-05-24T00:14:42;25.27;;;4.40;;
36225;SDS011;22268;52.010;4.716;2023-05-24T00:17:07;23.73;;;4.25;;
36225;SDS011;22268;52.010;4.716;2023-05-24T00:21:58;19.45;;;5.53;;
36225;SDS011;22268;52.010;4.716;2023-05-24T00:24:23;24.27;;;6.03;;
36225;SDS011;22268;52.010;4.716;2023-05-24T00:29:13;19.45;;;4.68;;
36225;SDS011;22268;52.010;4.716;2023-05-24T00:31:38;17.98;;;4.43;;
36225;SDS011;22268;52.010;4.716;2023-05-24T00:36:29;21.40;;;4.62;;
36225;SDS011;22268;52.010;4.716;2023-05-24T00:38:55;16.62;;;4.87;;
36225;SDS011;22268;52.010;4.716;2023-05-24T00:43:45;17.85;;;5.20;;
36225;SDS011;22268;52.010;4.716;2023-05-24T00:48:35;19.00;;;5.47;;
36225;SDS011;22268;52.010;4.716;2023-05-24T00:51:00;25.98;;;5.15;;
36225;SDS011;22268;52.010;4.716;2023-05-24T00:55:51;15.60;;;5.47;;
36225;SDS011;22268;52.010;4.716;2023-05-24T01:00:41;21.20;;;4.75;;
36225;SDS011;22268;52.010;4.716;2023-05-24T01:03:07;21.50;;;5.93;;
36225;SDS011;22268;52.010;4.716;2023-05-24T01:05:34;24.12;;;5.57;;
36225;SDS011;22268;52.010;4.716;2023-05-24T01:08:34;25.25;;;5.37;;
36225;SDS011;22268;52.010;4.716;2023-05-24T01:10:53;20.90;;;5.35;;
36225;SDS011;22268;52.010;4.716;2023-05-24T01:16:16;24.87;;;6.80;;
36225;SDS011;22268;52.010;4.716;2023-05-24T01:18:45;26.75;;;5.95;;
36225;SDS011;22268;52.010;4.716;2023-05-24T01:21:22;23.62;;;5.93;;
36225;SDS011;22268;52.010;4.716;2023-05-24T01:24:00;22.83;;;6.93;;
36225;SDS011;22268;52.010;4.716;2023-05-24T01:26:36;25.90;;;6.85;;
36225;SDS011;22268;52.010;4.716;2023-05-24T01:29:03;20.80;;;6.18;;
36225;SDS011;22268;52.010;4.716;2023-05-24T01:31:28;21.05;;;5.40;;
36225;SDS011;22268;52.010;4.716;2023-05-24T01:36:19;18.87;;;5.50;;
36225;SDS011;22268;52.010;4.716;2023-05-24T01:41:32;18.20;;;5.03;;
36225;SDS011;22268;52.010;4.716;2023-05-24T01:44:10;25.10;;;6.12;;
36225;SDS011;22268;52.010;4.716;2023-05-24T01:46:37;20.15;;;5.90;;
36225;SDS011;22268;52.010;4.716;2023-05-24T01:51:29;28.55;;;5.30;;
36225;SDS011;22268;52.010;4.716;2023-05-24T01:53:56;35.05;;;6.10;;
36225;SDS011;22268;52.010;4.716;2023-05-24T01:56:22;19.60;;;6.10;;
36225;SDS011;22268;52.010;4.716;2023-05-24T01:58:48;24.15;;;6.20;;
36225;SDS011;22268;52.010;4.716;2023-05-24T02:01:14;22.67;;;6.18;;
36225;SDS011;22268;52.010;4.716;2023-05-24T02:03:40;23.85;;;6.43;;
36225;SDS011;22268;52.010;4.716;2023-05-24T02:08:30;18.83;;;5.32;;
36225;SDS011;22268;52.010;4.716;2023-05-24T02:10:55;21.00;;;5.55;;
36225;SDS011;22268;52.010;4.716;2023-05-24T02:15:46;27.10;;;6.12;;
36225;SDS011;22268;52.010;4.716;2023-05-24T02:18:11;21.42;;;5.35;;
36225;SDS011;22268;52.010;4.716;2023-05-24T02:20:37;21.52;;;5.82;;
36225;SDS011;22268;52.010;4.716;2023-05-24T02:25:28;25.23;;;5.65;;
36225;SDS011;22268;52.010;4.716;2023-05-24T02:30:18;15.65;;;5.70;;
36225;SDS011;22268;52.010;4.716;2023-05-24T02:35:08;23.48;;;6.35;;
36225;SDS011;22268;52.010;4.716;2023-05-24T02:39:58;18.70;;;6.15;;
36225;SDS011;22268;52.010;4.716;2023-05-24T02:42:24;19.60;;;5.97;;
36225;SDS011;22268;52.010;4.716;2023-05-24T02:47:16;20.37;;;5.40;;
36225;SDS011;22268;52.010;4.716;2023-05-24T02:52:07;25.17;;;6.40;;
36225;SDS011;22268;52.010;4.716;2023-05-24T02:54:32;23.05;;;6.18;;
36225;SDS011;22268;52.010;4.716;2023-05-24T02:59:23;21.60;;;5.95;;
36225;SDS011;22268;52.010;4.716;2023-05-24T03:04:13;22.17;;;6.30;;
36225;SDS011;22268;52.010;4.716;2023-05-24T03:09:03;27.67;;;6.82;;
36225;SDS011;22268;52.010;4.716;2023-05-24T03:11:29;18.55;;;5.90;;
36225;SDS011;22268;52.010;4.716;2023-05-24T03:16:19;32.45;;;7.97;;
36225;SDS011;22268;52.010;4.716;2023-05-24T03:21:10;34.75;;;7.53;;
36225;SDS011;22268;52.010;4.716;2023-05-24T03:23:35;26.80;;;6.87;;
36225;SDS011;22268;52.010;4.716;2023-05-24T03:28:25;28.85;;;6.85;;
36225;SDS011;22268;52.010;4.716;2023-05-24T03:30:51;19.67;;;6.78;;
36225;SDS011;22268;52.010;4.716;2023-05-24T03:33:16;25.27;;;8.55;;
36225;SDS011;22268;52.010;4.716;2023-05-24T03:38:06;24.35;;;6.87;;
36225;SDS011;22268;52.010;4.716;2023-05-24T03:42:58;23.23;;;7.80;;
36225;SDS011;22268;52.010;4.716;2023-05-24T03:47:48;28.48;;;7.82;;
36225;SDS011;22268;52.010;4.716;2023-05-24T03:52:39;20.62;;;7.18;;
36225;SDS011;22268;52.010;4.716;2023-05-24T03:55:04;27.75;;;6.72;;
36225;SDS011;22268;52.010;4.716;2023-05-24T03:57:29;21.45;;;6.85;;
36225;SDS011;22268;52.010;4.716;2023-05-24T04:02:20;32.20;;;7.68;;
36225;SDS011;22268;52.010;4.716;2023-05-24T04:07:10;20.40;;;6.47;;
36225;SDS011;22268;52.010;4.716;2023-05-24T04:09:37;23.40;;;7.82;;
36225;SDS011;22268;52.010;4.716;2023-05-24T04:14:28;18.70;;;7.30;;
36225;SDS011;22268;52.010;4.716;2023-05-24T04:16:53;31.02;;;12.95;;
36225;SDS011;22268;52.010;4.716;2023-05-24T04:21:44;25.83;;;7.05;;
36225;SDS011;22268;52.010;4.716;2023-05-24T04:26:34;22.73;;;7.30;;
36225;SDS011;22268;52.010;4.716;2023-05-24T04:29:01;36.22;;;7.90;;
36225;SDS011;22268;52.010;4.716;2023-05-24T04:31:27;23.60;;;7.43;;
36225;SDS011;22268;52.010;4.716;2023-05-24T04:33:54;25.83;;;7.65;;
36225;SDS011;22268;52.010;4.716;2023-05-24T04:38:46;22.23;;;7.45;;
36225;SDS011;22268;52.010;4.716;2023-05-24T04:41:11;30.05;;;7.40;;
36225;SDS011;22268;52.010;4.716;2023-05-24T04:46:02;24.73;;;6.80;;
36225;SDS011;22268;52.010;4.716;2023-05-24T04:50:53;20.17;;;7.35;;
36225;SDS011;22268;52.010;4.716;2023-05-24T04:53:18;26.05;;;6.80;;
36225;SDS011;22268;52.010;4.716;2023-05-24T04:55:44;21.27;;;7.32;;
36225;SDS011;22268;52.010;4.716;2023-05-24T04:58:09;29.05;;;8.60;;
36225;SDS011;22268;52.010;4.716;2023-05-24T05:03:00;29.05;;;7.85;;
36225;SDS011;22268;52.010;4.716;2023-05-24T05:05:25;25.55;;;8.50;;
36225;SDS011;22268;52.010;4.716;2023-05-24T05:10:15;22.48;;;7.20;;
36225;SDS011;22268;52.010;4.716;2023-05-24T05:12:41;18.80;;;7.35;;
36225;SDS011;22268;52.010;4.716;2023-05-24T05:15:06;37.22;;;8.25;;
36225;SDS011;22268;52.010;4.716;2023-05-24T05:17:31;22.17;;;7.57;;
36225;SDS011;22268;52.010;4.716;2023-05-24T05:22:22;19.52;;;6.43;;
36225;SDS011;22268;52.010;4.716;2023-05-24T05:24:47;26.20;;;6.28;;
36225;SDS011;22268;52.010;4.716;2023-05-24T05:27:12;27.87;;;7.25;;
36225;SDS011;22268;52.010;4.716;2023-05-24T05:32:02;24.67;;;5.70;;
36225;SDS011;22268;52.010;4.716;2023-05-24T05:34:28;26.02;;;7.80;;
36225;SDS011;22268;52.010;4.716;2023-05-24T05:39:18;27.27;;;6.87;;
36225;SDS011;22268;52.010;4.716;2023-05-24T05:44:10;20.55;;;5.45;;
36225;SDS011;22268;52.010;4.716;2023-05-24T05:46:35;26.92;;;6.12;;
36225;SDS011;22268;52.010;4.716;2023-05-24T05:51:25;22.08;;;6.78;;
36225;SDS011;22268;52.010;4.716;2023-05-24T05:53:51;21.00;;;5.72;;
36225;SDS011;22268;52.010;4.716;2023-05-24T05:56:16;21.37;;;5.15;;
36225;SDS011;22268;52.010;4.716;2023-05-24T06:01:06;27.58;;;6.03;;
36225;SDS011;22268;52.010;4.716;2023-05-24T06:03:32;23.90;;;5.70;;
36225;SDS011;22268;52.010;4.716;2023-05-24T06:08:22;19.70;;;5.15;;
36225;SDS011;22268;52.010;4.716;2023-05-24T06:10:47;27.40;;;6.37;;
36225;SDS011;22268;52.010;4.716;2023-05-24T06:15:37;27.05;;;6.20;;
36225;SDS011;22268;52.010;4.716;2023-05-24T06:18:03;21.20;;;6.30;;
36225;SDS011;22268;52.010;4.716;2023-05-24T06:20:29;22.70;;;6.70;;
36225;SDS011;22268;52.010;4.716;2023-05-24T06:22:54;26.23;;;7.57;;
36225;SDS011;22268;52.010;4.716;2023-05-24T06:25:20;27.62;;;7.07;;
36225;SDS011;22268;52.010;4.716;2023-05-24T06:27:47;17.75;;;6.57;;
36225;SDS011;22268;52.010;4.716;2023-05-24T06:30:12;18.23;;;6.00;;
36225;SDS011;22268;52.010;4.716;2023-05-24T06:35:03;18.30;;;5.93;;
36225;SDS011;22268;52.010;4.716;2023-05-24T06:37:29;27.52;;;6.68;;
36225;SDS011;22268;52.010;4.716;2023-05-24T06:39:55;24.05;;;6.62;;
36225;SDS011;22268;52.010;4.716;2023-05-24T06:42:20;19.10;;;5.87;;
36225;SDS011;22268;52.010;4.716;2023-05-24T06:47:11;22.45;;;6.12;;
36225;SDS011;22268;52.010;4.716;2023-05-24T06:49:36;31.08;;;6.95;;
36225;SDS011;22268;52.010;4.716;2023-05-24T06:52:02;18.67;;;5.82;;
36225;SDS011;22268;52.010;4.716;2023-05-24T06:54:27;27.90;;;6.35;;
36225;SDS011;22268;52.010;4.716;2023-05-24T06:56:52;21.42;;;6.05;;
36225;SDS011;22268;52.010;4.716;2023-05-24T06:59:17;21.37;;;6.40;;
36225;SDS011;22268;52.010;4.716;2023-05-24T07:01:42;21.35;;;6.50;;
36225;SDS011;22268;52.010;4.716;2023-05-24T07:04:08;17.30;;;5.25;;
36225;SDS011;22268;52.010;4.716;2023-05-24T07:06:33;28.73;;;7.37;;
36225;SDS011;22268;52.010;4.716;2023-05-24T07:08:59;17.98;;;5.72;;
36225;SDS011;22268;52.010;4.716;2023-05-24T07:11:26;18.87;;;5.70;;
36225;SDS011;22268;52.010;4.716;2023-05-24T07:13:51;22.55;;;5.70;;
36225;SDS011;22268;52.010;4.716;2023-05-24T07:16:16;24.20;;;6.22;;
36225;SDS011;22268;52.010;4.716;2023-05-24T07:18:41;20.05;;;5.20;;
36225;SDS011;22268;52.010;4.716;2023-05-24T07:21:07;22.45;;;4.90;;
36225;SDS011;22268;52.010;4.716;2023-05-24T07:23:32;18.27;;;4.30;;
36225;SDS011;22268;52.010;4.716;2023-05-24T07:25:57;17.27;;;6.95;;
36225;SDS011;22268;52.010;4.716;2023-05-24T07:28:22;18.87;;;4.50;;
36225;SDS011;22268;52.010;4.716;2023-05-24T07:30:48;12.25;;;4.70;;
36225;SDS011;22268;52.010;4.716;2023-05-24T07:33:13;14.15;;;5.20;;
36225;SDS011;22268;52.010;4.716;2023-05-24T07:35:38;21.15;;;6.53;;
36225;SDS011;22268;52.010;4.716;2023-05-24T07:38:04;19.98;;;4.95;;
36225;SDS011;22268;52.010;4.716;2023-05-24T07:40:29;18.92;;;5.10;;
36225;SDS011;22268;52.010;4.716;2023-05-24T07:42:55;16.75;;;4.45;;
36225;SDS011;22268;52.010;4.716;2023-05-24T07:45:20;17.77;;;4.53;;
36225;SDS011;22268;52.010;4.716;2023-05-24T07:47:45;22.25;;;4.97;;
36225;SDS011;22268;52.010;4.716;2023-05-24T07:50:11;17.50;;;4.75;;
36225;SDS011;22268;52.010;4.716;2023-05-24T07:52:36;20.02;;;5.18;;
36225;SDS011;22268;52.010;4.716;2023-05-24T07:55:02;20.42;;;4.18;;
36225;SDS011;22268;52.010;4.716;2023-05-24T07:57:28;18.58;;;5.07;;
36225;SDS011;22268;52.010;4.716;2023-05-24T07:59:54;22.25;;;4.70;;
36225;SDS011;22268;52.010;4.716;2023-05-24T08:02:19;19.67;;;5.03;;
36225;SDS011;22268;52.010;4.716;2023-05-24T08:04:44;17.52;;;4.45;;
36225;SDS011;22268;52.010;4.716;2023-05-24T08:07:10;16.98;;;4.47;;
36225;SDS011;22268;52.010;4.716;2023-05-24T08:09:35;14.75;;;3.72;;
36225;SDS011;22268;52.010;4.716;2023-05-24T08:12:02;18.52;;;4.45;;
36225;SDS011;22268;52.010;4.716;2023-05-24T08:14:28;17.50;;;4.43;;
36225;SDS011;22268;52.010;4.716;2023-05-24T08:16:53;13.10;;;4.07;;
36225;SDS011;22268;52.010;4.716;2023-05-24T08:19:18;18.17;;;4.65;;
36225;SDS011;22268;52.010;4.716;2023-05-24T08:21:43;14.30;;;4.30;;
36225;SDS011;22268;52.010;4.716;2023-05-24T08:24:09;16.52;;;4.90;;
36225;SDS011;22268;52.010;4.716;2023-05-24T08:26:35;14.55;;;4.40;;
36225;SDS011;22268;52.010;4.716;2023-05-24T08:29:00;18.83;;;4.67;;
36225;SDS011;22268;52.010;4.716;2023-05-24T08:31:26;14.70;;;5.00;;
36225;SDS011;22268;52.010;4.716;2023-05-24T08:33:52;18.00;;;3.97;;
36225;SDS011;22268;52.010;4.716;2023-05-24T08:36:17;18.77;;;4.65;;
36225;SDS011;22268;52.010;4.716;2023-05-24T08:38:43;18.00;;;5.40;;
36225;SDS011;22268;52.010;4.716;2023-05-24T08:41:09;20.20;;;4.90;;
36225;SDS011;22268;52.010;4.716;2023-05-24T08:43:34;15.30;;;3.30;;
36225;SDS011;22268;52.010;4.716;2023-05-24T08:46:00;10.10;;;4.20;;
36225;SDS011;22268;52.010;4.716;2023-05-24T08:48:26;17.98;;;4.70;;
36225;SDS011;22268;52.010;4.716;2023-05-24T08:50:52;15.82;;;5.12;;
36225;SDS011;22268;52.010;4.716;2023-05-24T08:53:17;14.52;;;5.30;;
36225;SDS011;22268;52.010;4.716;2023-05-24T08:55:43;13.40;;;4.00;;
36225;SDS011;22268;52.010;4.716;2023-05-24T08:58:08;21.62;;;5.53;;
36225;SDS011;22268;52.010;4.716;2023-05-24T09:00:35;19.45;;;4.80;;
36225;SDS011;22268;52.010;4.716;2023-05-24T09:03:00;18.42;;;5.15;;
36225;SDS011;22268;52.010;4.716;2023-05-24T09:05:25;20.23;;;5.68;;
36225;SDS011;22268;52.010;4.716;2023-05-24T09:07:51;20.52;;;4.97;;
36225;SDS011;22268;52.010;4.716;2023-05-24T09:10:17;18.70;;;5.90;;
36225;SDS011;22268;52.010;4.716;2023-05-24T09:12:43;18.90;;;5.20;;
36225;SDS011;22268;52.010;4.716;2023-05-24T09:15:09;36.63;;;5.75;;
36225;SDS011;22268;52.010;4.716;2023-05-24T09:17:35;21.80;;;5.07;;
36225;SDS011;22268;52.010;4.716;2023-05-24T09:20:01;16.67;;;5.07;;
36225;SDS011;22268;52.010;4.716;2023-05-24T09:22:30;17.02;;;4.07;;
36225;SDS011;22268;52.010;4.716;2023-05-24T09:25:00;17.20;;;5.30;;
36225;SDS011;22268;52.010;4.716;2023-05-24T09:27:26;15.77;;;5.15;;
36225;SDS011;22268;52.010;4.716;2023-05-24T09:29:52;16.67;;;4.32;;
36225;SDS011;22268;52.010;4.716;2023-05-24T09:32:18;15.95;;;4.55;;
36225;SDS011;22268;52.010;4.716;2023-05-24T09:34:44;17.80;;;3.85;;
36225;SDS011;22268;52.010;4.716;2023-05-24T09:37:13;15.43;;;4.50;;
36225;SDS011;22268;52.010;4.716;2023-05-24T09:39:40;11.73;;;4.65;;
36225;SDS011;22268;52.010;4.716;2023-05-24T09:42:13;21.62;;;4.80;;
36225;SDS011;22268;52.010;4.716;2023-05-24T09:44:39;17.27;;;4.47;;
36225;SDS011;22268;52.010;4.716;2023-05-24T09:47:04;13.38;;;4.60;;
36225;SDS011;22268;52.010;4.716;2023-05-24T09:49:29;16.15;;;4.32;;
36225;SDS011;22268;52.010;4.716;2023-05-24T09:51:55;15.27;;;4.15;;
36225;SDS011;22268;52.010;4.716;2023-05-24T09:54:20;13.50;;;4.18;;
36225;SDS011;22268;52.010;4.716;2023-05-24T09:56:45;14.50;;;5.50;;
36225;SDS011;22268;52.010;4.716;2023-05-24T09:59:11;17.80;;;6.05;;
36225;SDS011;22268;52.010;4.716;2023-05-24T10:01:36;19.20;;;4.80;;
36225;SDS011;22268;52.010;4.716;2023-05-24T10:04:01;16.08;;;4.95;;
36225;SDS011;22268;52.010;4.716;2023-05-24T10:06:29;17.48;;;5.47;;
36225;SDS011;22268;52.010;4.716;2023-05-24T10:08:57;12.68;;;4.20;;
36225;SDS011;22268;52.010;4.716;2023-05-24T10:11:22;13.20;;;4.35;;
36225;SDS011;22268;52.010;4.716;2023-05-24T10:13:48;15.13;;;4.35;;
36225;SDS011;22268;52.010;4.716;2023-05-24T10:16:14;10.68;;;4.00;;
36225;SDS011;22268;52.010;4.716;2023-05-24T10:18:39;14.43;;;4.35;;
36225;SDS011;22268;52.010;4.716;2023-05-24T10:21:05;15.75;;;4.45;;
36225;SDS011;22268;52.010;4.716;2023-05-24T10:23:34;12.00;;;4.65;;
36225;SDS011;22268;52.010;4.716;2023-05-24T10:26:07;17.50;;;5.15;;
36225;SDS011;22268;52.010;4.716;2023-05-24T10:28:35;15.82;;;4.93;;
36225;SDS011;22268;52.010;4.716;2023-05-24T10:31:09;14.35;;;4.70;;
36225;SDS011;22268;52.010;4.716;2023-05-24T10:33:36;22.77;;;5.28;;
36225;SDS011;22268;52.010;4.716;2023-05-24T10:36:05;11.80;;;4.40;;
36225;SDS011;22268;52.010;4.716;2023-05-24T10:38:31;21.87;;;4.50;;
36225;SDS011;22268;52.010;4.716;2023-05-24T10:40:56;10.88;;;4.20;;
36225;SDS011;22268;52.010;4.716;2023-05-24T10:43:21;17.70;;;4.35;;
36225;SDS011;22268;52.010;4.716;2023-05-24T10:45:47;17.15;;;5.78;;
36225;SDS011;22268;52.010;4.716;2023-05-24T10:50:38;14.90;;;4.63;;
36225;SDS011;22268;52.010;4.716;2023-05-24T10:53:13;13.02;;;5.07;;
36225;SDS011;22268;52.010;4.716;2023-05-24T10:58:21;16.92;;;5.05;;
36225;SDS011;22268;52.010;4.716;2023-05-24T11:00:47;11.50;;;4.22;;
36225;SDS011;22268;52.010;4.716;2023-05-24T11:03:15;16.23;;;5.37;;
36225;SDS011;22268;52.010;4.716;2023-05-24T11:11:07;20.85;;;6.07;;
36225;SDS011;22268;52.010;4.716;2023-05-24T11:13:36;15.27;;;4.45;;
36225;SDS011;22268;52.010;4.716;2023-05-24T11:16:02;15.60;;;4.37;;
36225;SDS011;22268;52.010;4.716;2023-05-24T11:18:27;16.25;;;4.32;;
36225;SDS011;22268;52.010;4.716;2023-05-24T11:20:52;15.02;;;4.93;;
36225;SDS011;22268;52.010;4.716;2023-05-24T11:23:18;14.10;;;4.95;;
36225;SDS011;22268;52.010;4.716;2023-05-24T11:25:46;11.75;;;4.82;;
36225;SDS011;22268;52.010;4.716;2023-05-24T11:28:15;12.68;;;5.07;;
36225;SDS011;22268;52.010;4.716;2023-05-24T11:30:41;18.42;;;4.45;;
36225;SDS011;22268;52.010;4.716;2023-05-24T11:33:16;14.25;;;4.82;;
36225;SDS011;22268;52.010;4.716;2023-05-24T11:35:42;15.07;;;4.72;;
36225;SDS011;22268;52.010;4.716;2023-05-24T11:38:08;12.65;;;4.07;;
36225;SDS011;22268;52.010;4.716;2023-05-24T11:40:34;14.27;;;4.18;;
36225;SDS011;22268;52.010;4.716;2023-05-24T11:42:59;15.63;;;4.53;;
36225;SDS011;22268;52.010;4.716;2023-05-24T11:45:24;11.05;;;4.37;;
36225;SDS011;22268;52.010;4.716;2023-05-24T11:47:50;13.90;;;4.95;;
36225;SDS011;22268;52.010;4.716;2023-05-24T11:50:15;15.38;;;4.72;;
36225;SDS011;22268;52.010;4.716;2023-05-24T11:52:47;15.13;;;4.82;;
36225;SDS011;22268;52.010;4.716;2023-05-24T11:55:12;11.70;;;4.60;;
36225;SDS011;22268;52.010;4.716;2023-05-24T11:57:38;12.50;;;4.62;;
36225;SDS011;22268;52.010;4.716;2023-05-24T12:00:05;11.98;;;4.70;;
36225;SDS011;22268;52.010;4.716;2023-05-24T12:02:35;13.48;;;5.22;;
36225;SDS011;22268;52.010;4.716;2023-05-24T12:05:07;15.63;;;4.55;;
36225;SDS011;22268;52.010;4.716;2023-05-24T12:07:34;12.88;;;4.10;;
36225;SDS011;22268;52.010;4.716;2023-05-24T12:10:00;18.15;;;5.18;;
36225;SDS011;22268;52.010;4.716;2023-05-24T12:12:25;25.12;;;5.05;;
36225;SDS011;22268;52.010;4.716;2023-05-24T12:14:51;18.12;;;5.22;;
36225;SDS011;22268;52.010;4.716;2023-05-24T12:17:19;15.57;;;4.80;;
36225;SDS011;22268;52.010;4.716;2023-05-24T12:19:44;14.30;;;4.80;;
36225;SDS011;22268;52.010;4.716;2023-05-24T12:22:12;21.75;;;5.12;;
36225;SDS011;22268;52.010;4.716;2023-05-24T12:24:37;24.08;;;5.05;;
36225;SDS011;22268;52.010;4.716;2023-05-24T12:27:03;16.58;;;4.75;;
36225;SDS011;22268;52.010;4.716;2023-05-24T12:29:31;15.27;;;5.65;;
36225;SDS011;22268;52.010;4.716;2023-05-24T12:31:58;21.33;;;4.97;;
36225;SDS011;22268;52.010;4.716;2023-05-24T12:34:23;12.90;;;4.07;;
36225;SDS011;22268;52.010;4.716;2023-05-24T12:36:48;13.93;;;5.30;;
36225;SDS011;22268;52.010;4.716;2023-05-24T12:39:20;14.63;;;4.78;;
36225;SDS011;22268;52.010;4.716;2023-05-24T12:41:49;19.52;;;5.35;;
36225;SDS011;22268;52.010;4.716;2023-05-24T12:44:15;16.52;;;5.32;;
36225;SDS011;22268;52.010;4.716;2023-05-24T12:46:40;16.23;;;4.45;;
36225;SDS011;22268;52.010;4.716;2023-05-24T12:49:06;20.58;;;5.35;;
36225;SDS011;22268;52.010;4.716;2023-05-24T12:51:31;20.60;;;4.75;;
36225;SDS011;22268;52.010;4.716;2023-05-24T12:53:56;16.10;;;4.25;;
36225;SDS011;22268;52.010;4.716;2023-05-24T12:56:22;28.60;;;5.57;;
36225;SDS011;22268;52.010;4.716;2023-05-24T12:58:49;30.10;;;5.47;;
36225;SDS011;22268;52.010;4.716;2023-05-24T13:01:14;19.60;;;5.20;;
36225;SDS011;22268;52.010;4.716;2023-05-24T13:03:39;27.17;;;5.83;;
36225;SDS011;22268;52.010;4.716;2023-05-24T13:06:04;14.32;;;5.12;;
36225;SDS011;22268;52.010;4.716;2023-05-24T13:08:30;14.18;;;4.87;;
36225;SDS011;22268;52.010;4.716;2023-05-24T13:10:55;16.62;;;4.43;;
36225;SDS011;22268;52.010;4.716;2023-05-24T13:13:21;15.13;;;5.50;;
36225;SDS011;22268;52.010;4.716;2023-05-24T13:15:48;15.48;;;5.18;;
36225;SDS011;22268;52.010;4.716;2023-05-24T13:18:13;17.65;;;5.18;;
36225;SDS011;22268;52.010;4.716;2023-05-24T13:20:39;14.35;;;5.35;;
36225;SDS011;22268;52.010;4.716;2023-05-24T13:23:04;14.65;;;5.20;;
36225;SDS011;22268;52.010;4.716;2023-05-24T13:25:29;14.32;;;5.87;;
36225;SDS011;22268;52.010;4.716;2023-05-24T13:27:55;16.23;;;5.60;;
36225;SDS011;22268;52.010;4.716;2023-05-24T13:30:21;19.98;;;5.65;;
36225;SDS011;22268;52.010;4.716;2023-05-24T13:32:51;19.80;;;5.30;;
36225;SDS011;22268;52.010;4.716;2023-05-24T13:35:16;16.02;;;5.55;;
36225;SDS011;22268;52.010;4.716;2023-05-24T13:37:42;16.52;;;4.80;;
36225;SDS011;22268;52.010;4.716;2023-05-24T13:40:07;15.85;;;4.82;;
36225;SDS011;22268;52.010;4.716;2023-05-24T13:42:32;14.48;;;5.18;;
36225;SDS011;22268;52.010;4.716;2023-05-24T13:44:58;14.75;;;4.93;;
36225;SDS011;22268;52.010;4.716;2023-05-24T13:47:23;14.13;;;4.37;;
36225;SDS011;22268;52.010;4.716;2023-05-24T13:49:49;15.68;;;5.25;;
36225;SDS011;22268;52.010;4.716;2023-05-24T13:52:14;15.85;;;4.82;;
36225;SDS011;22268;52.010;4.716;2023-05-24T13:54:40;16.90;;;4.93;;
36225;SDS011;22268;52.010;4.716;2023-05-24T13:57:05;15.52;;;4.45;;
36225;SDS011;22268;52.010;4.716;2023-05-24T13:59:30;22.83;;;5.20;;
36225;SDS011;22268;52.010;4.716;2023-05-24T14:01:56;16.27;;;5.57;;
36225;SDS011;22268;52.010;4.716;2023-05-24T14:04:21;19.85;;;4.80;;
36225;SDS011;22268;52.010;4.716;2023-05-24T14:06:46;19.85;;;5.40;;
36225;SDS011;22268;52.010;4.716;2023-05-24T14:09:12;23.80;;;6.07;;
36225;SDS011;22268;52.010;4.716;2023-05-24T14:11:37;16.27;;;4.72;;
36225;SDS011;22268;52.010;4.716;2023-05-24T14:14:02;13.62;;;5.05;;
36225;SDS011;22268;52.010;4.716;2023-05-24T14:16:27;15.30;;;4.72;;
36225;SDS011;22268;52.010;4.716;2023-05-24T14:18:53;20.02;;;5.65;;
36225;SDS011;22268;52.010;4.716;2023-05-24T14:21:18;17.55;;;5.65;;
36225;SDS011;22268;52.010;4.716;2023-05-24T14:23:45;16.58;;;5.03;;
36225;SDS011;22268;52.010;4.716;2023-05-24T14:26:10;18.30;;;4.95;;
36225;SDS011;22268;52.010;4.716;2023-05-24T14:28:35;13.52;;;4.82;;
36225;SDS011;22268;52.010;4.716;2023-05-24T14:31:01;17.80;;;5.53;;
36225;SDS011;22268;52.010;4.716;2023-05-24T14:33:26;18.85;;;10.10;;
36225;SDS011;22268;52.010;4.716;2023-05-24T14:35:51;12.25;;;4.50;;
36225;SDS011;22268;52.010;4.716;2023-05-24T14:38:17;14.77;;;5.05;;
36225;SDS011;22268;52.010;4.716;2023-05-24T14:40:42;13.07;;;5.07;;
36225;SDS011;22268;52.010;4.716;2023-05-24T14:43:11;14.32;;;4.40;;
36225;SDS011;22268;52.010;4.716;2023-05-24T14:45:36;14.50;;;4.30;;
36225;SDS011;22268;52.010;4.716;2023-05-24T14:48:05;14.13;;;4.60;;
36225;SDS011;22268;52.010;4.716;2023-05-24T14:50:30;19.15;;;4.68;;
36225;SDS011;22268;52.010;4.716;2023-05-24T14:52:55;12.73;;;4.70;;
36225;SDS011;22268;52.010;4.716;2023-05-24T14:55:21;10.88;;;4.30;;
36225;SDS011;22268;52.010;4.716;2023-05-24T14:57:46;17.45;;;4.62;;
36225;SDS011;22268;52.010;4.716;2023-05-24T15:00:12;16.92;;;4.82;;
36225;SDS011;22268;52.010;4.716;2023-05-24T15:02:37;24.17;;;5.75;;
36225;SDS011;22268;52.010;4.716;2023-05-24T15:05:02;14.68;;;5.00;;
36225;SDS011;22268;52.010;4.716;2023-05-24T15:07:28;11.52;;;4.18;;
36225;SDS011;22268;52.010;4.716;2023-05-24T15:09:53;15.07;;;4.93;;
36225;SDS011;22268;52.010;4.716;2023-05-24T15:12:18;18.35;;;4.87;;
36225;SDS011;22268;52.010;4.716;2023-05-24T15:14:43;17.83;;;5.15;;
36225;SDS011;22268;52.010;4.716;2023-05-24T15:17:09;12.80;;;5.12;;
36225;SDS011;22268;52.010;4.716;2023-05-24T15:19:34;12.70;;;4.60;;
36225;SDS011;22268;52.010;4.716;2023-05-24T15:22:00;14.50;;;5.22;;
36225;SDS011;22268;52.010;4.716;2023-05-24T15:24:25;14.73;;;4.40;;
36225;SDS011;22268;52.010;4.716;2023-05-24T15:26:50;14.57;;;4.20;;
36225;SDS011;22268;52.010;4.716;2023-05-24T15:29:17;13.95;;;4.82;;
36225;SDS011;22268;52.010;4.716;2023-05-24T15:31:42;13.57;;;4.10;;
36225;SDS011;22268;52.010;4.716;2023-05-24T15:34:07;12.53;;;4.10;;
36225;SDS011;22268;52.010;4.716;2023-05-24T15:36:32;17.75;;;6.18;;
36225;SDS011;22268;52.010;4.716;2023-05-24T15:38:57;15.30;;;3.97;;
36225;SDS011;22268;52.010;4.716;2023-05-24T15:41:23;15.00;;;4.60;;
36225;SDS011;22268;52.010;4.716;2023-05-24T15:43:51;18.37;;;5.57;;
36225;SDS011;22268;52.010;4.716;2023-05-24T15:46:17;12.73;;;4.25;;
36225;SDS011;22268;52.010;4.716;2023-05-24T15:48:44;12.65;;;4.28;;
36225;SDS011;22268;52.010;4.716;2023-05-24T15:51:09;12.60;;;3.95;;
36225;SDS011;22268;52.010;4.716;2023-05-24T15:53:34;15.75;;;4.30;;
36225;SDS011;22268;52.010;4.716;2023-05-24T15:56:00;13.20;;;3.60;;
36225;SDS011;22268;52.010;4.716;2023-05-24T15:58:25;10.23;;;3.78;;
36225;SDS011;22268;52.010;4.716;2023-05-24T16:00:50;7.32;;;3.60;;
36225;SDS011;22268;52.010;4.716;2023-05-24T16:03:17;12.27;;;3.78;;
36225;SDS011;22268;52.010;4.716;2023-05-24T16:05:43;11.38;;;4.53;;
36225;SDS011;22268;52.010;4.716;2023-05-24T16:08:09;7.65;;;3.53;;
36225;SDS011;22268;52.010;4.716;2023-05-24T16:10:34;7.68;;;3.45;;
36225;SDS011;22268;52.010;4.716;2023-05-24T16:13:00;10.85;;;3.60;;
36225;SDS011;22268;52.010;4.716;2023-05-24T16:15:25;11.85;;;3.78;;
36225;SDS011;22268;52.010;4.716;2023-05-24T16:17:50;10.43;;;3.47;;
36225;SDS011;22268;52.010;4.716;2023-05-24T16:20:16;10.73;;;3.67;;
36225;SDS011;22268;52.010;4.716;2023-05-24T16:22:47;8.43;;;3.40;;
36225;SDS011;22268;52.010;4.716;2023-05-24T16:25:15;11.70;;;3.95;;
36225;SDS011;22268;52.010;4.716;2023-05-24T16:27:40;13.18;;;4.72;;
36225;SDS011;22268;52.010;4.716;2023-05-24T16:30:06;9.85;;;3.65;;
36225;SDS011;22268;52.010;4.716;2023-05-24T16:32:31;12.60;;;3.20;;
36225;SDS011;22268;52.010;4.716;2023-05-24T16:34:57;8.10;;;3.05;;
36225;SDS011;22268;52.010;4.716;2023-05-24T16:37:22;10.48;;;2.87;;
36225;SDS011;22268;52.010;4.716;2023-05-24T16:39:47;17.50;;;3.83;;